createdAt,value
2023-05-15T00:01:54.174Z,2.9
2023-05-15T00:04:56.192Z,2.9
2023-05-15T00:07:58.103Z,2.8
2023-05-15T00:11:01.830Z,2.7
2023-05-15T00:14:02.011Z,2.7
2023-05-15T00:17:03.962Z,3.1
2023-05-15T00:20:05.937Z,3.3
2023-05-15T00:23:07.919Z,2.9
2023-05-15T00:26:09.903Z,3.2
2023-05-15T00:29:11.861Z,3.2
2023-05-15T00:32:13.802Z,3.4
2023-05-15T00:35:15.777Z,2.6
2023-05-15T00:38:17.739Z,2.9
2023-05-15T00:41:19.697Z,2.9
2023-05-15T00:44:21.670Z,3.1
2023-05-15T00:47:23.643Z,2.9
2023-05-15T00:50:25.637Z,3
2023-05-15T00:53:27.638Z,2.8
2023-05-15T00:56:29.580Z,2.9
2023-05-15T00:59:31.525Z,3.1
2023-05-15T01:02:33.513Z,2.5
2023-05-15T01:05:35.426Z,2.9
2023-05-15T01:08:37.379Z,2.8
2023-05-15T01:11:39.349Z,2.8
2023-05-15T01:14:41.306Z,2.9
2023-05-15T01:17:43.336Z,2.6
2023-05-15T01:20:45.324Z,3
2023-05-15T01:23:47.188Z,2.6
2023-05-15T01:26:49.176Z,2.9
2023-05-15T01:29:51.182Z,2.9
2023-05-15T01:32:53.193Z,3.5
2023-05-15T01:35:55.121Z,2.7
2023-05-15T01:38:57.039Z,3.1
2023-05-15T01:41:59.007Z,2.8
2023-05-15T01:45:00.994Z,2.9
2023-05-15T01:48:02.982Z,3.6
2023-05-15T01:51:04.938Z,2.6
2023-05-15T01:54:06.876Z,3.1
2023-05-15T01:57:08.851Z,3.1
2023-05-15T02:00:10.808Z,3
2023-05-15T02:03:12.851Z,3
2023-05-15T02:06:14.777Z,2.7
2023-05-15T02:09:16.729Z,3.4
2023-05-15T02:12:18.689Z,3.4
2023-05-15T02:15:20.643Z,3.6
2023-05-15T02:18:22.625Z,3.3
2023-05-15T02:21:24.563Z,3.2
2023-05-15T02:24:26.528Z,3.3
2023-05-15T02:27:28.496Z,3.3
2023-05-15T02:30:30.467Z,3.3
2023-05-15T02:33:32.413Z,3.6
2023-05-15T02:36:34.387Z,3.2
2023-05-15T02:39:36.349Z,3.2
2023-05-15T02:42:38.284Z,3.1
2023-05-15T02:45:40.252Z,3.3
2023-05-15T02:48:42.315Z,3.2
2023-05-15T02:51:44.179Z,3.8
2023-05-15T02:54:46.138Z,3.5
2023-05-15T02:57:48.090Z,3.6
2023-05-15T03:00:50.100Z,3.9
2023-05-15T03:03:52.050Z,4
2023-05-15T03:06:53.973Z,3.8
2023-05-15T03:09:55.974Z,3.8
2023-05-15T03:12:57.977Z,4.4
2023-05-15T03:15:59.889Z,3.8
2023-05-15T03:19:01.872Z,3.6
2023-05-15T03:22:03.797Z,4.1
2023-05-15T03:25:05.787Z,4
2023-05-15T03:28:07.737Z,4.3
2023-05-15T03:31:09.749Z,4.1
2023-05-15T03:34:11.692Z,4.2
2023-05-15T03:37:13.638Z,4.7
2023-05-15T03:40:15.612Z,4.1
2023-05-15T03:43:17.598Z,4.3
2023-05-15T03:46:20.175Z,4
2023-05-15T03:49:21.580Z,4.1
2023-05-15T03:52:23.531Z,4
2023-05-15T03:55:25.662Z,4.7
2023-05-15T03:58:27.468Z,5
2023-05-15T04:01:29.542Z,4.3
2023-05-15T04:04:31.373Z,4.2
2023-05-15T04:07:33.345Z,4.4
2023-05-15T04:10:35.276Z,4.9
2023-05-15T04:13:37.341Z,5
2023-05-15T04:16:39.240Z,4.5
2023-05-15T04:19:43.025Z,5.2
2023-05-15T04:22:43.139Z,4.9
2023-05-15T04:25:45.084Z,4.9
2023-05-15T04:28:56.403Z,5.5
2023-05-15T04:31:49.054Z,4.6
2023-05-15T04:34:50.969Z,5.2
2023-05-15T04:37:52.934Z,5.6
2023-05-15T04:40:54.919Z,5.5
2023-05-15T04:43:56.854Z,6.1
2023-05-15T04:46:58.835Z,5.2
2023-05-15T04:50:00.780Z,5.5
2023-05-15T04:53:02.732Z,5.2
2023-05-15T04:56:04.704Z,5.1
2023-05-15T04:59:06.658Z,5.4
2023-05-15T05:02:08.636Z,5.2
2023-05-15T05:05:10.599Z,5.1
2023-05-15T05:08:13.278Z,4.8
2023-05-15T05:11:14.506Z,4.3
2023-05-15T05:14:16.479Z,5.5
2023-05-15T05:17:18.492Z,5
2023-05-15T05:20:20.729Z,4.9
2023-05-15T05:23:22.357Z,4.5
2023-05-15T05:26:24.415Z,3.6
2023-05-15T05:29:26.325Z,4.1
2023-05-15T05:32:28.277Z,4.5
2023-05-15T05:35:30.224Z,4
2023-05-15T05:38:32.194Z,3.8
2023-05-15T05:41:34.132Z,3.1
2023-05-15T05:44:36.089Z,3.6
2023-05-15T05:47:38.130Z,3.5
2023-05-15T05:50:40.050Z,3.9
2023-05-15T05:53:42.004Z,3.6
2023-05-15T05:56:43.981Z,3.6
2023-05-15T05:59:45.920Z,4.5
2023-05-15T06:02:48.008Z,4.5
2023-05-15T06:05:49.874Z,4.3
2023-05-15T06:08:53.138Z,4.4
2023-05-15T06:11:53.786Z,3.4
2023-05-15T06:14:55.760Z,4.3
2023-05-15T06:17:57.758Z,4
2023-05-15T06:20:59.660Z,3.9
2023-05-15T06:24:01.630Z,4.6
2023-05-15T06:27:03.610Z,4.2
2023-05-15T06:30:05.578Z,3.2
2023-05-15T06:33:07.649Z,3.2
2023-05-15T06:36:09.485Z,3.3
2023-05-15T06:39:11.446Z,3.9
2023-05-15T06:42:13.429Z,4.5
2023-05-15T06:45:15.378Z,3.2
2023-05-15T06:48:17.356Z,4.1
2023-05-15T06:51:19.296Z,3.2
2023-05-15T06:54:21.275Z,3.4
2023-05-15T06:57:23.236Z,3.9
2023-05-15T07:00:25.184Z,3.9
2023-05-15T07:03:27.176Z,4.1
2023-05-15T07:06:29.121Z,4
2023-05-15T07:09:31.100Z,3.4
2023-05-15T07:12:33.084Z,3.8
2023-05-15T07:15:35.051Z,3.3
2023-05-15T07:18:37.054Z,3.4
2023-05-15T07:21:38.959Z,3.3
2023-05-15T07:24:40.919Z,3.8
2023-05-15T07:27:42.897Z,3.1
2023-05-15T07:30:44.922Z,3.1
2023-05-15T07:33:46.850Z,3.7
2023-05-15T07:36:49.016Z,3.1
2023-05-15T07:39:50.867Z,2.5
2023-05-15T07:42:52.737Z,2.5
2023-05-15T07:45:54.714Z,3
2023-05-15T07:48:56.690Z,2.6
2023-05-15T07:51:58.669Z,2.9
2023-05-15T07:55:00.639Z,2.9
2023-05-15T07:58:02.587Z,3.1
2023-05-15T08:01:04.576Z,2.8
2023-05-15T08:04:06.600Z,2.6
2023-05-15T08:07:08.460Z,3.2
2023-05-15T08:10:10.580Z,2.8
2023-05-15T08:13:12.409Z,2.9
2023-05-15T08:16:14.427Z,2.7
2023-05-15T08:19:16.416Z,2.6
2023-05-15T08:22:18.294Z,2.7
2023-05-15T08:25:20.270Z,3
2023-05-15T08:28:22.226Z,2.8
2023-05-15T08:31:24.210Z,2.6
2023-05-15T08:34:26.158Z,2.7
2023-05-15T08:37:28.120Z,3
2023-05-15T08:40:38.114Z,2.9
2023-05-15T08:43:32.065Z,2.9
2023-05-15T08:46:34.061Z,2.7
2023-05-15T08:49:35.986Z,3.1
2023-05-15T08:52:37.948Z,3
2023-05-15T08:55:39.978Z,2.9
2023-05-15T08:58:41.954Z,2.7
2023-05-15T09:01:43.937Z,2.5
2023-05-15T09:04:45.865Z,2.8
2023-05-15T09:07:47.828Z,2.3
2023-05-15T09:10:49.949Z,2.5
2023-05-15T09:13:51.774Z,2.6
2023-05-15T09:16:53.767Z,2.6
2023-05-15T09:19:55.674Z,3.1
2023-05-15T09:22:57.636Z,2.9
2023-05-15T09:25:59.711Z,2.7
2023-05-15T09:29:01.549Z,2.6
2023-05-15T09:32:03.586Z,2.6
2023-05-15T09:35:05.723Z,2.8
2023-05-15T09:38:07.441Z,2.5
2023-05-15T09:41:09.414Z,3
2023-05-15T09:44:11.363Z,3.3
2023-05-15T09:47:13.456Z,3.2
2023-05-15T09:50:15.323Z,2.9
2023-05-15T09:53:21.289Z,2.9
2023-05-15T09:56:19.215Z,2.8
2023-05-15T09:59:21.167Z,2.6
2023-05-15T10:02:23.174Z,2.6
2023-05-15T10:05:35.499Z,2.6
2023-05-15T10:08:27.086Z,4.7
2023-05-15T10:11:29.051Z,4.8
2023-05-15T10:14:31.022Z,4.2
2023-05-15T10:17:33.025Z,3.9
2023-05-15T10:20:34.977Z,4.3
2023-05-15T10:23:36.929Z,4.5
2023-05-15T10:26:38.892Z,4.6
2023-05-15T10:29:40.851Z,4.4
2023-05-15T10:32:42.892Z,5.3
2023-05-15T10:35:44.781Z,5.3
2023-05-15T10:38:46.740Z,5.6
2023-05-15T10:41:48.715Z,4.8
2023-05-15T10:44:50.675Z,4.7
2023-05-15T10:47:52.686Z,5.2
2023-05-15T10:50:54.636Z,4.6
2023-05-15T10:53:56.603Z,3.9
2023-05-15T10:56:58.550Z,3.6
2023-05-15T11:00:00.520Z,3.8
2023-05-15T11:03:02.485Z,4.7
2023-05-15T11:06:04.472Z,6.7
2023-05-15T11:09:06.409Z,5.9
2023-05-15T11:12:08.386Z,8
2023-05-15T11:15:10.350Z,8.5
2023-05-15T11:18:12.363Z,8.9
2023-05-15T11:21:14.264Z,8.1
2023-05-15T11:24:16.235Z,8
2023-05-15T11:27:18.209Z,7.4
2023-05-15T11:30:20.188Z,6.7
2023-05-15T11:33:22.104Z,6.9
2023-05-15T11:36:24.139Z,7.4
2023-05-15T11:39:26.128Z,6.6
2023-05-15T11:42:28.120Z,7
2023-05-15T11:45:30.073Z,7.1
2023-05-15T11:48:32.162Z,8.2
2023-05-15T11:51:34.114Z,8.5
2023-05-15T11:54:36.052Z,7.6
2023-05-15T11:57:38.086Z,6.2
2023-05-15T12:00:40.001Z,5.3
2023-05-15T12:03:42.125Z,5.2
2023-05-15T12:06:43.934Z,5.3
2023-05-15T12:09:45.899Z,5.8
2023-05-15T12:12:47.866Z,5.4
2023-05-15T12:15:49.855Z,6.3
2023-05-15T12:18:51.930Z,6.6
2023-05-15T12:21:53.757Z,6.1
2023-05-15T12:24:55.732Z,6.4
2023-05-15T12:27:57.727Z,6.4
2023-05-15T12:30:59.844Z,6.2
2023-05-15T12:34:01.642Z,7
2023-05-15T12:37:03.600Z,7.1
2023-05-15T12:40:05.563Z,6.2
2023-05-15T12:43:07.584Z,6.5
2023-05-15T12:46:09.505Z,7.7
2023-05-15T12:49:11.444Z,8.3
2023-05-15T12:52:13.408Z,7.1
2023-05-15T12:55:15.415Z,7
2023-05-15T12:58:17.330Z,6.6
2023-05-15T13:01:19.284Z,6.1
2023-05-15T13:04:21.256Z,5.3
2023-05-15T13:07:23.215Z,4.4
2023-05-15T13:10:25.421Z,3.7
2023-05-15T13:13:27.119Z,3.9
2023-05-15T13:16:29.164Z,3.5
2023-05-15T13:19:31.040Z,3.5
2023-05-15T13:22:33.020Z,3.1
2023-05-15T13:25:34.985Z,3.1
2023-05-15T13:28:36.936Z,3.2
2023-05-15T13:31:38.934Z,3.1
2023-05-15T13:34:40.837Z,2.7
2023-05-15T13:37:42.811Z,2.7
2023-05-15T13:40:44.770Z,3
2023-05-15T13:43:46.726Z,2.6
2023-05-15T13:46:48.724Z,2.9
2023-05-15T13:49:50.679Z,2.9
2023-05-15T13:52:52.643Z,2.7
2023-05-15T13:55:54.610Z,2.6
2023-05-15T13:58:56.560Z,2.3
2023-05-15T14:01:58.509Z,2.4
2023-05-15T14:05:00.490Z,2.4
2023-05-15T14:08:02.449Z,2.4
2023-05-15T14:11:04.429Z,2.4
2023-05-15T14:14:06.394Z,2.7
2023-05-15T14:17:08.365Z,4.1
2023-05-15T14:20:10.320Z,4.8
2023-05-15T14:23:12.291Z,4.9
2023-05-15T14:26:14.231Z,4.5
2023-05-15T14:29:16.188Z,4
2023-05-15T14:32:18.232Z,4.3
2023-05-15T14:35:20.132Z,3.8
2023-05-15T14:38:22.095Z,4.1
2023-05-15T14:41:24.038Z,4.2
2023-05-15T14:44:26.015Z,3.7
2023-05-15T14:47:27.991Z,3.8
2023-05-15T14:50:29.917Z,4.5
2023-05-15T14:53:31.908Z,3.9
2023-05-15T14:56:33.854Z,3.9
2023-05-15T14:59:35.812Z,4.9
2023-05-15T15:02:37.896Z,4.8
2023-05-15T15:05:39.781Z,5.1
2023-05-15T15:08:41.766Z,5.6
2023-05-15T15:11:43.749Z,6.5
2023-05-15T15:14:45.685Z,7.9
2023-05-15T15:17:47.659Z,6.4
2023-05-15T15:20:49.622Z,7.6
2023-05-15T15:23:51.546Z,7.4
2023-05-15T15:26:53.524Z,8.6
2023-05-15T15:29:55.489Z,7.5
2023-05-15T15:32:57.480Z,6
2023-05-15T15:35:59.453Z,6.2
2023-05-15T15:39:01.406Z,6.6
2023-05-15T15:42:05.166Z,6.6
2023-05-15T15:45:05.446Z,7.5
2023-05-15T15:48:07.435Z,7.4
2023-05-15T15:51:09.404Z,8.6
2023-05-15T15:54:11.334Z,8.8
2023-05-15T15:57:13.274Z,8.9
2023-05-15T16:00:15.259Z,8.5
2023-05-15T16:03:17.288Z,10
2023-05-15T16:06:19.252Z,9.1
2023-05-15T16:09:21.165Z,9.4
2023-05-15T16:12:23.358Z,10.8
2023-05-15T16:15:25.073Z,10.3
2023-05-15T16:18:27.036Z,10
2023-05-15T16:21:29.143Z,9.8
2023-05-15T16:24:30.968Z,8.9
2023-05-15T16:27:32.970Z,10
2023-05-15T16:30:47.867Z,9
2023-05-15T16:33:36.913Z,9.5
2023-05-15T16:36:38.898Z,10.5
2023-05-15T16:39:40.881Z,10.4
2023-05-15T16:42:42.829Z,9.9
2023-05-15T16:45:44.787Z,9.5
2023-05-15T16:48:46.749Z,9.4
2023-05-15T16:51:48.695Z,10.1
2023-05-15T16:54:50.705Z,9
2023-05-15T16:57:52.706Z,9.1
2023-05-15T17:00:54.660Z,7.9
2023-05-15T17:03:56.749Z,7.2
2023-05-15T17:06:58.588Z,6.6
2023-05-15T17:10:00.534Z,7.8
2023-05-15T17:13:02.499Z,7.1
2023-05-15T17:16:04.494Z,7.9
2023-05-15T17:19:06.517Z,7.6
2023-05-15T17:22:08.465Z,7.3
2023-05-15T17:25:10.434Z,7.3
2023-05-15T17:28:12.408Z,7.4
2023-05-15T17:31:14.380Z,7.4
2023-05-15T17:34:16.340Z,7.7
2023-05-15T17:37:18.295Z,7.3
2023-05-15T17:40:20.277Z,7.5
2023-05-15T17:43:22.304Z,7.7
2023-05-15T17:46:24.303Z,8.5
2023-05-15T17:49:26.248Z,7.7
2023-05-15T17:52:28.191Z,8.2
2023-05-15T17:55:30.146Z,8.1
2023-05-15T17:58:32.141Z,7.1
2023-05-15T18:01:34.117Z,7.4
2023-05-15T18:04:36.045Z,7.5
2023-05-15T18:07:38.059Z,6.8
2023-05-15T18:10:40.021Z,7.1
2023-05-15T18:13:41.965Z,6.3
2023-05-15T18:16:44.005Z,6.9
2023-05-15T18:19:45.955Z,6
2023-05-15T18:22:47.912Z,5.7
2023-05-15T18:25:49.884Z,6.1
2023-05-15T18:28:51.837Z,6.8
2023-05-15T18:31:53.889Z,7.4
2023-05-15T18:34:55.778Z,7.4
2023-05-15T18:37:57.732Z,6.7
2023-05-15T18:40:59.685Z,7.2
2023-05-15T18:44:01.668Z,7.3
2023-05-15T18:47:03.682Z,6.7
2023-05-15T18:50:05.602Z,7.2
2023-05-15T18:53:07.557Z,6.8
2023-05-15T18:56:09.514Z,7.2
2023-05-15T18:59:11.484Z,7.5
2023-05-15T19:02:13.468Z,7.9
2023-05-15T19:05:15.435Z,8
2023-05-15T19:08:17.400Z,7.7
2023-05-15T19:11:19.358Z,8.1
2023-05-15T19:14:21.326Z,8.2
2023-05-15T19:17:23.282Z,6.8
2023-05-15T19:20:25.491Z,7.8
2023-05-15T19:23:27.204Z,7.8
2023-05-15T19:26:29.360Z,7.5
2023-05-15T19:29:31.177Z,7.2
2023-05-15T19:32:33.254Z,7.5
2023-05-15T19:35:37.292Z,7.5
2023-05-15T19:38:37.024Z,7.1
2023-05-15T19:41:38.997Z,7.8
2023-05-15T19:44:40.996Z,7.8
2023-05-15T19:47:42.966Z,7.5
2023-05-15T19:50:44.948Z,7.6
2023-05-15T19:53:46.879Z,8.2
2023-05-15T19:56:48.857Z,7.4
2023-05-15T19:59:50.842Z,7.5
2023-05-15T20:02:52.857Z,6.9
2023-05-15T20:05:54.759Z,8.4
2023-05-15T20:08:56.716Z,8.5
2023-05-15T20:11:58.683Z,8.2
2023-05-15T20:15:00.665Z,7.9
2023-05-15T20:18:02.660Z,8.4
2023-05-15T20:21:04.586Z,8
2023-05-15T20:24:06.535Z,8.6
2023-05-15T20:27:08.512Z,8.1
2023-05-15T20:30:10.491Z,8
2023-05-15T20:33:12.462Z,8.4
2023-05-15T20:36:14.400Z,9.8
2023-05-15T20:39:16.397Z,9.5
2023-05-15T20:42:18.372Z,7.9
2023-05-15T20:45:20.320Z,6.9
2023-05-15T20:48:22.325Z,8.8
2023-05-15T20:51:24.279Z,9.2
2023-05-15T20:54:26.247Z,9.1
2023-05-15T20:57:28.202Z,8.1
2023-05-15T21:00:30.178Z,8.6
2023-05-15T21:03:32.315Z,8.8
2023-05-15T21:06:34.097Z,8
2023-05-15T21:09:36.058Z,9.4
2023-05-15T21:12:38.020Z,9
2023-05-15T21:15:39.978Z,10
2023-05-15T21:18:41.993Z,10
2023-05-15T21:21:43.950Z,8.1
2023-05-15T21:24:45.918Z,8.4
2023-05-15T21:27:47.885Z,8.9
2023-05-15T21:30:49.858Z,11.5
2023-05-15T21:33:51.835Z,11.4
2023-05-15T21:36:53.772Z,10.5
2023-05-15T21:39:55.714Z,11.5
2023-05-15T21:42:57.690Z,10.6
2023-05-15T21:45:59.685Z,12.2
2023-05-15T21:49:01.602Z,9.7
2023-05-15T21:52:03.564Z,12.1
2023-05-15T21:55:05.518Z,10.5
2023-05-15T21:58:07.482Z,12.8
2023-05-15T22:01:09.490Z,13.2
2023-05-15T22:04:11.429Z,13.8
2023-05-15T22:07:13.380Z,14.6
2023-05-15T22:10:15.360Z,13.9
2023-05-15T22:13:17.306Z,13.8
2023-05-15T22:16:19.332Z,17.5
2023-05-15T22:19:31.884Z,13.2
2023-05-15T22:22:23.214Z,18.7
2023-05-15T22:25:25.192Z,17.2
2023-05-15T22:28:27.136Z,20.9
2023-05-15T22:31:29.118Z,19
2023-05-15T22:34:31.066Z,20.9
2023-05-15T22:37:33.034Z,19.5
2023-05-15T22:40:34.987Z,15.4
2023-05-15T22:43:36.943Z,20
2023-05-15T22:46:38.907Z,18.8
2023-05-15T22:49:40.860Z,18.7
2023-05-15T22:52:42.821Z,20.1
2023-05-15T22:55:44.815Z,16.5
2023-05-15T22:58:46.735Z,16
2023-05-15T23:01:48.817Z,17.7
2023-05-15T23:04:50.699Z,20.1
2023-05-15T23:07:52.725Z,18.2
2023-05-15T23:10:54.603Z,17.2
2023-05-15T23:13:56.582Z,18.5
2023-05-15T23:16:58.545Z,13.5
2023-05-15T23:20:00.493Z,18
2023-05-15T23:23:02.472Z,20.2
2023-05-15T23:26:04.434Z,19.1
2023-05-15T23:29:06.406Z,18.3
2023-05-15T23:32:08.369Z,19.5
2023-05-15T23:35:10.308Z,20.2
2023-05-15T23:38:12.296Z,17.9
2023-05-15T23:41:14.251Z,19.9
2023-05-15T23:44:16.198Z,19.7
2023-05-15T23:47:18.163Z,17.4
2023-05-15T23:50:20.120Z,21
2023-05-15T23:53:22.119Z,21.6
2023-05-15T23:56:24.072Z,21.3
2023-05-15T23:59:26.025Z,21.3
